Time;durP1;ratioP1;P1;durP2;ratioP2;P2;SDS_P1;SDS_P2;PMS_P1;PMS_P2;Temp;Humidity;BMP_temperature;BMP_pressure;BME280_temperature;BME280_humidity;BME280_pressure;Samples;Min_cycle;Max_cycle;Signal;HPM_P1;HPM_P2
2022/03/23 00:00:39;;;;;;;;;69.00;55.00;;;;;;;;5061571;28;48919;-69
2022/03/23 00:03:05;;;;;;;;;66.50;54.00;;;;;;;;5063479;28;45455;-68
2022/03/23 00:05:30;;;;;;;;;72.50;56.00;;;;;;;;5067518;27;45780;-68
2022/03/23 00:07:56;;;;;;;;;67.00;52.00;;;;;;;;5066326;28;45586;-68
2022/03/23 00:10:21;;;;;;;;;64.00;51.50;;;;;;;;5073586;28;45740;-68
2022/03/23 00:12:46;;;;;;;;;68.50;54.25;;;;;;;;5072665;28;46189;-68
2022/03/23 00:15:12;;;;;;;;;67.00;53.50;;;;;;;;5073453;28;45354;-68
2022/03/23 00:17:37;;;;;;;;;69.00;54.25;;;;;;;;5072582;28;45368;-69
2022/03/23 00:20:04;;;;;;;;;69.75;56.75;;;;;;;;5073011;28;47425;-68
2022/03/23 00:22:29;;;;;;;;;63.25;50.75;;;;;;;;5056647;28;45502;-68
2022/03/23 00:24:56;;;;;;;;;70.00;55.50;;;;;;;;5074484;27;45494;-68
2022/03/23 00:27:21;;;;;;;;;69.25;54.25;;;;;;;;5073636;28;45574;-68
2022/03/23 00:29:46;;;;;;;;;66.25;52.75;;;;;;;;5069969;27;47556;-68
2022/03/23 00:32:14;;;;;;;;;68.75;54.00;;;;;;;;5072628;28;45347;-68
2022/03/23 00:34:39;;;;;;;;;68.75;55.00;;;;;;;;5072464;27;45657;-68
2022/03/23 00:37:04;;;;;;;;;67.00;54.00;;;;;;;;5072056;28;45532;-68
2022/03/23 00:39:29;;;;;;;;;70.50;56.25;;;;;;;;5073128;28;47555;-68
2022/03/23 00:41:56;;;;;;;;;73.00;55.25;;;;;;;;5073943;28;45565;-69
2022/03/23 00:44:21;;;;;;;;;68.75;53.00;;;;;;;;5072764;28;45403;-69
2022/03/23 00:46:46;;;;;;;;;73.50;56.50;;;;;;;;5072719;28;45511;-69
2022/03/23 00:49:12;;;;;;;;;70.50;56.50;;;;;;;;5072507;28;48703;-68
2022/03/23 00:51:38;;;;;;;;;72.50;55.00;;;;;;;;5072942;27;45574;-68
2022/03/23 00:54:03;;;;;;;;;68.50;54.25;;;;;;;;5073926;27;45532;-67
2022/03/23 00:56:29;;;;;;;;;66.50;53.75;;;;;;;;5073448;28;46092;-68
2022/03/23 00:58:54;;;;;;;;;72.75;56.00;;;;;;;;5073633;27;45513;-68
2022/03/23 01:01:19;;;;;;;;;70.25;54.25;;;;;;;;5071530;27;45533;-67
2022/03/23 01:03:44;;;;;;;;;67.50;52.25;;;;;;;;5071365;28;45391;-68
2022/03/23 01:06:10;;;;;;;;;66.25;52.25;;;;;;;;5070709;27;45425;-67
2022/03/23 01:08:35;;;;;;;;;68.50;54.75;;;;;;;;5068048;27;45687;-69
2022/03/23 01:11:01;;;;;;;;;70.75;55.25;;;;;;;;5069654;28;45406;-68
2022/03/23 01:13:27;;;;;;;;;67.50;55.00;;;;;;;;5069032;28;45463;-68
2022/03/23 01:15:52;;;;;;;;;71.25;55.25;;;;;;;;5073012;28;45984;-69
2022/03/23 01:18:17;;;;;;;;;67.25;53.50;;;;;;;;5073253;28;46683;-69
2022/03/23 01:20:42;;;;;;;;;70.00;54.75;;;;;;;;5072016;28;46064;-69
2022/03/23 01:23:08;;;;;;;;;71.50;54.25;;;;;;;;5073446;28;45557;-69
2022/03/23 01:25:33;;;;;;;;;65.00;52.00;;;;;;;;5071558;28;45967;-68
2022/03/23 01:27:59;;;;;;;;;64.75;51.50;;;;;;;;5073627;27;46318;-68
2022/03/23 01:30:24;;;;;;;;;68.00;52.00;;;;;;;;5070067;28;46204;-68
2022/03/23 01:32:49;;;;;;;;;68.25;51.25;;;;;;;;5073146;27;45523;-69
2022/03/23 01:35:14;;;;;;;;;65.50;53.00;;;;;;;;5073405;27;45418;-69
2022/03/23 01:37:40;;;;;;;;;68.50;55.75;;;;;;;;5072458;28;46328;-69
2022/03/23 01:40:07;;;;;;;;;68.00;55.00;;;;;;;;5070759;28;45452;-69
2022/03/23 01:42:32;;;;;;;;;68.50;51.50;;;;;;;;5071343;27;45472;-69
2022/03/23 01:44:58;;;;;;;;;69.25;54.25;;;;;;;;5067221;28;45486;-69
2022/03/23 01:47:23;;;;;;;;;69.00;55.75;;;;;;;;5074482;28;47889;-69
2022/03/23 01:49:50;;;;;;;;;68.00;53.50;;;;;;;;5076826;27;45443;-69
2022/03/23 01:52:16;;;;;;;;;65.75;52.75;;;;;;;;5076959;27;45484;-68
2022/03/23 01:54:42;;;;;;;;;66.75;53.00;;;;;;;;5077196;27;45491;-69
2022/03/23 01:57:09;;;;;;;;;68.25;54.50;;;;;;;;5072161;28;47691;-68
2022/03/23 01:59:35;;;;;;;;;67.50;53.75;;;;;;;;5076496;27;45569;-69
2022/03/23 02:02:00;;;;;;;;;64.25;49.75;;;;;;;;5076505;27;45372;-69
2022/03/23 02:04:26;;;;;;;;;68.50;54.00;;;;;;;;5074657;28;45365;-68
2022/03/23 02:06:52;;;;;;;;;67.50;52.75;;;;;;;;5070294;28;46845;-69
2022/03/23 02:09:18;;;;;;;;;69.25;54.00;;;;;;;;5068639;28;45468;-69
2022/03/23 02:11:44;;;;;;;;;69.00;53.25;;;;;;;;5066062;28;46248;-68
2022/03/23 02:14:09;;;;;;;;;67.50;53.00;;;;;;;;5076110;27;45707;-68
2022/03/23 02:16:41;;;;;;;;;63.75;52.25;;;;;;;;5074166;28;48477;-68
2022/03/23 02:19:07;;;;;;;;;63.25;51.25;;;;;;;;5075796;27;45490;-68
2022/03/23 02:21:34;;;;;;;;;68.50;53.00;;;;;;;;5076447;27;45424;-68
2022/03/23 02:23:59;;;;;;;;;61.75;51.25;;;;;;;;5076292;27;45412;-69
2022/03/23 02:26:25;;;;;;;;;68.50;55.25;;;;;;;;5074682;28;48632;-68
2022/03/23 02:28:51;;;;;;;;;62.75;51.50;;;;;;;;5076102;28;49766;-69
2022/03/23 02:31:17;;;;;;;;;72.75;56.50;;;;;;;;5074590;28;45802;-68
2022/03/23 02:33:42;;;;;;;;;63.50;51.00;;;;;;;;5075314;28;45440;-69
2022/03/23 02:36:07;;;;;;;;;66.75;53.50;;;;;;;;5075194;27;46207;-68
2022/03/23 02:38:33;;;;;;;;;68.00;54.25;;;;;;;;5075567;27;45555;-68
2022/03/23 02:40:58;;;;;;;;;62.75;50.75;;;;;;;;5076031;28;45546;-69
2022/03/23 02:43:23;;;;;;;;;66.25;53.50;;;;;;;;5074228;28;45546;-69
2022/03/23 02:45:48;;;;;;;;;61.50;49.25;;;;;;;;5075455;28;45386;-69
2022/03/23 02:48:13;;;;;;;;;63.75;49.50;;;;;;;;5073643;28;45392;-68
2022/03/23 02:50:39;;;;;;;;;56.00;47.50;;;;;;;;5075935;27;45407;-69
2022/03/23 03:04:10;;;;;;;;;46.25;38.50;;;;;;;;5072566;28;45490;-69
2022/03/23 03:06:35;;;;;;;;;49.25;41.50;;;;;;;;5075556;28;45522;-68
2022/03/23 03:09:01;;;;;;;;;44.00;38.75;;;;;;;;5074899;27;45836;-69
2022/03/23 03:11:26;;;;;;;;;43.25;38.25;;;;;;;;5072905;28;45423;-70
2022/03/23 03:13:52;;;;;;;;;44.50;37.25;;;;;;;;5074591;28;45529;-69
2022/03/23 03:16:18;;;;;;;;;43.50;36.75;;;;;;;;5075329;27;45853;-69
2022/03/23 03:18:43;;;;;;;;;45.25;38.75;;;;;;;;5074624;28;45443;-69
2022/03/23 03:21:10;;;;;;;;;50.00;39.75;;;;;;;;5075360;27;45369;-69
2022/03/23 03:23:38;;;;;;;;;38.75;35.00;;;;;;;;5075218;27;45361;-68
2022/03/23 03:26:05;;;;;;;;;42.50;36.50;;;;;;;;5067936;28;48436;-69
2022/03/23 03:28:30;;;;;;;;;48.50;37.75;;;;;;;;5073991;28;45609;-68
2022/03/23 03:30:56;;;;;;;;;34.00;31.25;;;;;;;;5069659;28;45804;-68
2022/03/23 03:33:21;;;;;;;;;37.50;33.75;;;;;;;;5073617;28;45658;-68
2022/03/23 03:35:46;;;;;;;;;39.50;35.00;;;;;;;;5074478;27;50040;-69
2022/03/23 03:38:11;;;;;;;;;36.25;32.25;;;;;;;;5073389;28;46051;-69
2022/03/23 03:40:36;;;;;;;;;32.00;27.00;;;;;;;;5075460;28;45549;-69
2022/03/23 03:43:02;;;;;;;;;34.50;31.50;;;;;;;;5075372;28;45340;-69
2022/03/23 03:45:28;;;;;;;;;36.75;29.75;;;;;;;;5074371;28;45689;-68
2022/03/23 03:47:53;;;;;;;;;29.25;29.00;;;;;;;;5074848;27;45325;-69
2022/03/23 03:50:18;;;;;;;;;30.50;29.75;;;;;;;;5074794;28;45372;-69
2022/03/23 03:52:43;;;;;;;;;29.50;25.25;;;;;;;;5074987;28;45565;-69
2022/03/23 03:55:08;;;;;;;;;28.00;24.75;;;;;;;;5073186;28;47540;-69
2022/03/23 03:57:34;;;;;;;;;31.50;27.50;;;;;;;;5075156;28;45397;-69
2022/03/23 03:59:59;;;;;;;;;34.50;31.75;;;;;;;;5065934;28;45341;-69
2022/03/23 04:02:24;;;;;;;;;32.25;30.00;;;;;;;;5071271;28;47934;-69
2022/03/23 04:04:49;;;;;;;;;33.25;32.25;;;;;;;;5074544;27;46168;-69
2022/03/23 04:07:14;;;;;;;;;32.00;29.50;;;;;;;;5072013;28;46285;-69
2022/03/23 04:09:40;;;;;;;;;32.50;30.25;;;;;;;;5074486;28;45383;-68
2022/03/23 04:12:05;;;;;;;;;32.50;31.00;;;;;;;;5072929;28;45595;-69
2022/03/23 04:14:30;;;;;;;;;30.50;29.75;;;;;;;;5074234;27;46777;-69
2022/03/23 04:16:56;;;;;;;;;30.50;30.25;;;;;;;;5072946;27;45491;-69
2022/03/23 04:19:21;;;;;;;;;27.25;25.25;;;;;;;;5072765;28;45949;-69
2022/03/23 04:21:46;;;;;;;;;30.25;28.75;;;;;;;;5073489;28;45600;-69
2022/03/23 04:24:11;;;;;;;;;30.25;27.00;;;;;;;;5072699;28;47600;-69
2022/03/23 04:26:36;;;;;;;;;33.75;28.50;;;;;;;;5072829;28;45643;-68
2022/03/23 04:29:02;;;;;;;;;25.00;21.75;;;;;;;;5074409;28;45262;-68
2022/03/23 04:31:27;;;;;;;;;25.00;24.25;;;;;;;;5072773;28;45399;-69
2022/03/23 04:33:52;;;;;;;;;24.00;23.00;;;;;;;;5073297;28;47926;-69
2022/03/23 04:36:17;;;;;;;;;31.25;30.00;;;;;;;;5072068;28;46288;-69
2022/03/23 04:38:43;;;;;;;;;26.25;26.25;;;;;;;;5074273;28;45320;-68
2022/03/23 04:41:08;;;;;;;;;31.25;29.50;;;;;;;;5072588;28;45447;-68
2022/03/23 04:43:35;;;;;;;;;29.00;27.25;;;;;;;;5074071;28;46205;-68
2022/03/23 04:46:00;;;;;;;;;32.00;32.00;;;;;;;;5072766;28;46231;-69
2022/03/23 04:48:25;;;;;;;;;34.00;29.75;;;;;;;;5073200;28;45581;-68
2022/03/23 04:50:50;;;;;;;;;37.25;33.25;;;;;;;;5072512;28;45423;-69
2022/03/23 04:53:16;;;;;;;;;33.50;31.75;;;;;;;;5072587;27;45585;-69
2022/03/23 04:55:41;;;;;;;;;32.75;28.50;;;;;;;;5072457;28;45705;-69
2022/03/23 04:58:06;;;;;;;;;29.75;27.25;;;;;;;;5073117;28;45734;-69
2022/03/23 05:00:34;;;;;;;;;29.75;27.75;;;;;;;;5075309;28;45573;-69
2022/03/23 05:03:00;;;;;;;;;32.00;29.50;;;;;;;;5073675;28;46414;-68
2022/03/23 05:05:25;;;;;;;;;27.50;27.50;;;;;;;;5056680;28;46024;-69
2022/03/23 05:07:51;;;;;;;;;30.50;26.00;;;;;;;;5070336;28;45457;-69
2022/03/23 05:10:16;;;;;;;;;29.00;28.00;;;;;;;;5072594;28;45402;-69
2022/03/23 05:12:43;;;;;;;;;30.00;29.00;;;;;;;;5071792;28;48770;-68
2022/03/23 05:15:09;;;;;;;;;27.75;27.75;;;;;;;;5073593;27;45541;-69
2022/03/23 05:17:35;;;;;;;;;28.00;28.00;;;;;;;;5064641;28;45411;-68
2022/03/23 05:20:00;;;;;;;;;30.50;30.25;;;;;;;;5075450;28;45345;-67
2022/03/23 05:22:25;;;;;;;;;36.75;33.25;;;;;;;;5076741;27;45778;-67
2022/03/23 05:24:50;;;;;;;;;32.25;32.25;;;;;;;;5077678;28;45555;-67
2022/03/23 05:33:27;;;;;;;;;32.00;30.00;;;;;;;;5078795;28;45634;-67
2022/03/23 06:09:41;;;;;;;;;33.50;29.25;;;;;;;;5089930;27;45537;-67
2022/03/23 06:12:07;;;;;;;;;32.25;30.50;;;;;;;;5074690;28;45364;-66
2022/03/23 06:14:33;;;;;;;;;34.00;32.75;;;;;;;;5076351;27;45475;-67
2022/03/23 06:16:58;;;;;;;;;28.25;28.25;;;;;;;;5076414;28;45458;-67
2022/03/23 06:19:24;;;;;;;;;37.00;34.00;;;;;;;;5074836;28;46124;-66
2022/03/23 06:21:49;;;;;;;;;43.75;35.25;;;;;;;;5071174;28;46564;-66
2022/03/23 06:24:14;;;;;;;;;34.75;31.50;;;;;;;;5076921;28;45605;-66
2022/03/23 06:26:39;;;;;;;;;38.50;35.00;;;;;;;;5075227;28;45344;-66
2022/03/23 06:29:04;;;;;;;;;34.00;32.75;;;;;;;;5076120;28;45644;-66
2022/03/23 06:31:30;;;;;;;;;36.75;34.25;;;;;;;;5074838;27;45505;-69
2022/03/23 06:33:55;;;;;;;;;43.75;37.25;;;;;;;;5076858;27;45411;-69
2022/03/23 06:36:20;;;;;;;;;44.50;38.50;;;;;;;;5074109;28;45466;-69
2022/03/23 06:38:47;;;;;;;;;43.75;38.25;;;;;;;;5074543;28;47765;-68
2022/03/23 06:41:13;;;;;;;;;54.75;42.00;;;;;;;;5068600;28;46017;-68
2022/03/23 06:43:38;;;;;;;;;48.50;41.25;;;;;;;;5075880;28;45601;-68
2022/03/23 06:46:04;;;;;;;;;41.25;36.50;;;;;;;;5076450;28;45313;-69
2022/03/23 06:48:30;;;;;;;;;53.75;42.25;;;;;;;;5075992;27;46579;-69
2022/03/23 06:50:55;;;;;;;;;43.75;36.25;;;;;;;;5068362;28;47736;-69
2022/03/23 06:53:20;;;;;;;;;40.75;36.00;;;;;;;;5075724;28;45300;-69
2022/03/23 06:55:45;;;;;;;;;46.25;39.50;;;;;;;;5074452;28;45429;-69
2022/03/23 06:58:11;;;;;;;;;42.00;36.00;;;;;;;;5075780;27;45901;-69
2022/03/23 07:00:36;;;;;;;;;45.75;37.50;;;;;;;;5074708;28;46327;-70
2022/03/23 07:03:02;;;;;;;;;52.75;40.00;;;;;;;;5074171;28;45424;-69
2022/03/23 07:05:27;;;;;;;;;48.50;39.50;;;;;;;;5074198;28;45372;-69
2022/03/23 07:10:37;;;;;;;;;42.75;38.25;;;;;;;;5059969;28;45260;-69
2022/03/23 07:13:02;;;;;;;;;45.25;37.25;;;;;;;;5074825;28;45460;-69
2022/03/23 07:15:28;;;;;;;;;44.00;35.25;;;;;;;;5068601;28;45594;-70
2022/03/23 07:17:53;;;;;;;;;44.50;37.00;;;;;;;;5075179;27;45294;-69
2022/03/23 07:20:19;;;;;;;;;46.25;39.50;;;;;;;;5075294;28;45431;-69
2022/03/23 07:22:44;;;;;;;;;49.75;38.00;;;;;;;;5072624;28;45363;-68
2022/03/23 07:25:09;;;;;;;;;46.75;37.50;;;;;;;;5074300;28;45676;-68
2022/03/23 07:27:35;;;;;;;;;34.00;32.75;;;;;;;;5073175;28;47816;-69
2022/03/23 07:30:00;;;;;;;;;47.50;41.00;;;;;;;;5073593;28;46489;-68
2022/03/23 07:32:25;;;;;;;;;46.75;37.25;;;;;;;;5073526;28;45556;-69
2022/03/23 07:34:50;;;;;;;;;48.75;39.75;;;;;;;;5073911;28;45571;-69
2022/03/23 07:37:16;;;;;;;;;47.50;39.00;;;;;;;;5073478;28;48746;-68
2022/03/23 07:39:41;;;;;;;;;39.75;35.25;;;;;;;;5073705;28;45419;-69
2022/03/23 07:42:06;;;;;;;;;51.25;40.00;;;;;;;;5074571;27;45443;-69
2022/03/23 07:44:35;;;;;;;;;44.75;38.00;;;;;;;;5073757;28;45577;-69
2022/03/23 07:47:00;;;;;;;;;50.00;41.25;;;;;;;;5068346;28;47528;-69
2022/03/23 07:49:26;;;;;;;;;44.75;38.25;;;;;;;;5073111;28;45903;-69
2022/03/23 07:51:51;;;;;;;;;48.25;39.00;;;;;;;;5074206;28;45475;-70
2022/03/23 07:54:16;;;;;;;;;51.75;40.75;;;;;;;;5073272;28;45419;-70
2022/03/23 07:56:42;;;;;;;;;54.25;42.00;;;;;;;;5073001;28;47715;-70
2022/03/23 07:59:07;;;;;;;;;50.75;40.00;;;;;;;;5065888;28;46752;-71
2022/03/23 08:01:33;;;;;;;;;51.75;41.00;;;;;;;;5057110;28;45664;-70
2022/03/23 08:03:58;;;;;;;;;55.00;42.50;;;;;;;;5066072;28;45361;-70
2022/03/23 08:06:24;;;;;;;;;48.00;38.25;;;;;;;;5067308;28;47991;-70
2022/03/23 08:08:49;;;;;;;;;43.25;36.00;;;;;;;;5074400;28;45572;-70
2022/03/23 08:11:15;;;;;;;;;41.75;35.75;;;;;;;;5067125;28;45455;-71
2022/03/23 08:13:40;;;;;;;;;46.00;38.50;;;;;;;;5073128;28;45352;-72
2022/03/23 08:16:05;;;;;;;;;38.50;34.75;;;;;;;;5073185;28;48246;-70
2022/03/23 08:18:32;;;;;;;;;44.50;37.25;;;;;;;;5074229;28;45473;-70
2022/03/23 08:20:57;;;;;;;;;36.25;32.50;;;;;;;;5074562;27;45392;-71
2022/03/23 08:23:25;;;;;;;;;37.00;32.25;;;;;;;;5073024;28;45575;-70
2022/03/23 08:25:50;;;;;;;;;38.00;33.75;;;;;;;;5074082;27;47833;-71
2022/03/23 08:28:15;;;;;;;;;34.50;31.00;;;;;;;;5074234;27;45395;-70
2022/03/23 08:30:41;;;;;;;;;39.25;35.25;;;;;;;;5073434;28;45528;-72
2022/03/23 08:33:06;;;;;;;;;41.00;34.75;;;;;;;;5072717;28;45533;-70
2022/03/23 08:35:31;;;;;;;;;40.00;34.25;;;;;;;;5073662;28;46092;-72
2022/03/23 08:37:57;;;;;;;;;38.00;32.00;;;;;;;;5072602;28;45375;-72
2022/03/23 08:40:22;;;;;;;;;43.00;34.25;;;;;;;;5072732;28;45369;-72
2022/03/23 08:42:47;;;;;;;;;38.25;33.25;;;;;;;;5074853;28;45313;-72
2022/03/23 08:45:15;;;;;;;;;34.75;31.00;;;;;;;;5066485;28;48322;-71
2022/03/23 08:47:40;;;;;;;;;32.25;30.50;;;;;;;;5073778;27;45542;-72
2022/03/23 08:50:09;;;;;;;;;33.00;29.50;;;;;;;;5072671;28;45784;-71
2022/03/23 08:52:35;;;;;;;;;37.25;29.75;;;;;;;;5057026;28;45346;-71
2022/03/23 08:55:02;;;;;;;;;31.00;28.75;;;;;;;;5073768;27;46505;-71
2022/03/23 08:57:27;;;;;;;;;34.75;30.00;;;;;;;;5065997;28;46260;-71
2022/03/23 08:59:53;;;;;;;;;34.50;30.50;;;;;;;;5066519;28;47069;-70
2022/03/23 09:02:18;;;;;;;;;38.00;32.00;;;;;;;;5072629;28;45543;-71
2022/03/23 09:04:43;;;;;;;;;32.50;30.75;;;;;;;;5070947;28;47660;-71
2022/03/23 09:07:08;;;;;;;;;32.25;29.75;;;;;;;;5074027;27;45579;-70
2022/03/23 09:09:33;;;;;;;;;30.25;29.25;;;;;;;;5074523;28;45510;-71
2022/03/23 09:11:59;;;;;;;;;28.25;28.25;;;;;;;;5064774;28;45692;-71
2022/03/23 09:14:24;;;;;;;;;23.50;23.00;;;;;;;;5073506;28;45423;-72
2022/03/23 09:16:49;;;;;;;;;26.00;26.00;;;;;;;;5072000;28;46053;-71
2022/03/23 09:19:19;;;;;;;;;25.25;23.25;;;;;;;;5073725;27;45376;-70
2022/03/23 09:21:45;;;;;;;;;20.00;19.00;;;;;;;;5071072;28;45361;-72
2022/03/23 09:24:11;;;;;;;;;20.00;19.50;;;;;;;;5073390;28;45277;-71
2022/03/23 09:26:36;;;;;;;;;24.75;22.75;;;;;;;;5072549;27;45389;-72
2022/03/23 09:29:01;;;;;;;;;22.75;21.25;;;;;;;;5072033;28;45574;-71
2022/03/23 09:31:26;;;;;;;;;17.75;17.75;;;;;;;;5073607;28;45415;-71
2022/03/23 09:33:52;;;;;;;;;16.50;15.75;;;;;;;;5072659;28;49108;-72
2022/03/23 09:39:01;;;;;;;;;14.25;14.25;;;;;;;;5073713;28;45518;-71
2022/03/23 09:41:26;;;;;;;;;14.25;14.00;;;;;;;;5073199;27;45608;-72
2022/03/23 09:43:52;;;;;;;;;18.00;16.75;;;;;;;;5068264;28;47431;-73
2022/03/23 09:46:17;;;;;;;;;16.25;16.00;;;;;;;;5073431;27;45862;-71
2022/03/23 09:48:43;;;;;;;;;21.75;20.00;;;;;;;;5073865;27;45656;-72
2022/03/23 09:51:09;;;;;;;;;17.50;16.50;;;;;;;;5064448;28;45421;-70
2022/03/23 09:53:35;;;;;;;;;20.00;20.00;;;;;;;;5065670;28;47533;-71
2022/03/23 09:56:01;;;;;;;;;22.00;18.75;;;;;;;;5071285;28;45497;-72
2022/03/23 09:58:26;;;;;;;;;22.00;20.75;;;;;;;;5072561;27;45462;-69
2022/03/23 10:00:52;;;;;;;;;24.00;22.25;;;;;;;;5072129;28;45528;-71
2022/03/23 10:03:36;;;;;;;;;21.75;20.75;;;;;;;;5072901;28;45438;-71
2022/03/23 10:06:20;;;;;;;;;21.25;20.25;;;;;;;;5073394;27;45745;-71
2022/03/23 10:09:03;;;;;;;;;23.75;22.75;;;;;;;;5076233;27;45538;-70
2022/03/23 10:11:55;;;;;;;;;19.25;19.00;;;;;;;;5074071;27;45410;-72
2022/03/23 10:14:39;;;;;;;;;20.25;18.75;;;;;;;;5012017;28;47814;-72
2022/03/23 10:17:10;;;;;;;;;23.75;23.50;;;;;;;;5012130;28;45528;-72
2022/03/23 10:19:41;;;;;;;;;22.75;22.25;;;;;;;;5013673;28;45453;-72
2022/03/23 10:22:10;;;;;;;;;21.00;21.00;;;;;;;;5014092;28;47160;-72
2022/03/23 10:24:36;;;;;;;;;17.25;17.25;;;;;;;;5013887;28;45463;-72
2022/03/23 10:27:05;;;;;;;;;17.50;17.50;;;;;;;;4996678;28;45893;-72
2022/03/23 10:29:32;;;;;;;;;18.75;18.25;;;;;;;;4992308;28;45396;-72
2022/03/23 10:32:03;;;;;;;;;19.50;18.25;;;;;;;;4996336;28;45731;-72
2022/03/23 10:34:38;;;;;;;;;19.75;19.50;;;;;;;;5012884;28;45725;-72
2022/03/23 10:37:03;;;;;;;;;17.25;17.25;;;;;;;;5013508;28;45552;-72
2022/03/23 10:39:29;;;;;;;;;18.00;15.75;;;;;;;;5011970;28;45449;-70
2022/03/23 10:42:00;;;;;;;;;18.75;17.50;;;;;;;;5011909;28;45632;-72
2022/03/23 10:44:26;;;;;;;;;17.50;17.50;;;;;;;;5011773;28;46016;-72
2022/03/23 10:46:51;;;;;;;;;17.25;17.25;;;;;;;;5010979;28;45433;-72
2022/03/23 10:49:16;;;;;;;;;18.00;18.00;;;;;;;;5013222;28;45670;-72
2022/03/23 10:51:42;;;;;;;;;15.50;14.75;;;;;;;;5055089;28;45409;-71
2022/03/23 10:54:13;;;;;;;;;20.00;20.00;;;;;;;;5074250;28;47506;-72
2022/03/23 10:56:39;;;;;;;;;18.75;18.00;;;;;;;;5068472;28;45797;-72
2022/03/23 10:59:16;;;;;;;;;24.50;21.75;;;;;;;;5075740;28;45469;-71
2022/03/23 11:01:55;;;;;;;;;13.00;12.75;;;;;;;;5059543;28;45595;-75
2022/03/23 11:04:20;;;;;;;;;19.75;19.25;;;;;;;;5075499;27;45706;-71
2022/03/23 11:06:45;;;;;;;;;21.00;18.25;;;;;;;;5073689;27;45602;-71
2022/03/23 11:15:46;;;;;;;;;23.75;21.25;;;;;;;;5072384;28;45570;-70
2022/03/23 11:17:44;;;;;;;;;25.50;22.75;;;;;;;;5074519;28;45481;-73
2022/03/23 11:20:10;;;;;;;;;21.25;20.50;;;;;;;;5075314;28;45395;-72
2022/03/23 11:22:35;;;;;;;;;21.25;20.75;;;;;;;;5073571;28;46217;-71
2022/03/23 11:25:00;;;;;;;;;24.25;22.50;;;;;;;;5075778;28;46554;-70
2022/03/23 11:27:26;;;;;;;;;23.75;21.50;;;;;;;;5075119;27;45632;-70
2022/03/23 11:29:55;;;;;;;;;22.00;19.75;;;;;;;;5075018;27;45525;-71
2022/03/23 11:32:27;;;;;;;;;21.00;18.75;;;;;;;;5074962;27;45475;-71
2022/03/23 11:34:55;;;;;;;;;29.00;23.50;;;;;;;;5073806;28;49054;-71
2022/03/23 11:37:21;;;;;;;;;22.25;22.25;;;;;;;;5057194;28;46306;-70
2022/03/23 11:39:46;;;;;;;;;23.75;21.25;;;;;;;;5074191;28;45553;-70
2022/03/23 11:42:13;;;;;;;;;23.75;23.00;;;;;;;;5073504;28;45453;-72
2022/03/23 11:44:40;;;;;;;;;20.75;20.75;;;;;;;;5074802;27;46366;-70
2022/03/23 11:47:20;;;;;;;;;21.00;19.50;;;;;;;;5073632;28;45618;-71
2022/03/23 11:49:49;;;;;;;;;19.75;18.00;;;;;;;;5060537;28;45521;-71
2022/03/23 11:52:17;;;;;;;;;25.75;25.75;;;;;;;;5090552;27;45531;-70
2022/03/23 11:57:56;;;;;;;;;30.00;26.50;;;;;;;;5074521;28;45617;-70
2022/03/23 12:00:24;;;;;;;;;22.50;20.75;;;;;;;;5074507;27;45849;-72
2022/03/23 12:02:50;;;;;;;;;25.25;24.25;;;;;;;;5074727;27;45549;-71
2022/03/23 12:05:32;;;;;;;;;27.75;26.00;;;;;;;;5067085;28;46586;-73
2022/03/23 12:07:58;;;;;;;;;23.00;23.00;;;;;;;;5074434;28;45518;-72
2022/03/23 12:10:24;;;;;;;;;22.50;22.50;;;;;;;;5074515;28;45331;-73
2022/03/23 12:12:50;;;;;;;;;23.75;21.75;;;;;;;;5075300;27;45562;-70
2022/03/23 12:15:24;;;;;;;;;26.00;25.00;;;;;;;;5070854;28;47454;-71
2022/03/23 12:17:55;;;;;;;;;24.25;23.75;;;;;;;;5072327;28;45417;-70
2022/03/23 12:20:28;;;;;;;;;22.00;21.25;;;;;;;;5073777;28;45532;-70
2022/03/23 12:22:56;;;;;;;;;27.75;25.25;;;;;;;;5073873;27;45504;-69
2022/03/23 12:25:35;;;;;;;;;28.75;28.50;;;;;;;;5073447;28;46082;-69
2022/03/23 12:28:19;;;;;;;;;25.25;23.25;;;;;;;;5064974;28;45778;-71
2022/03/23 12:30:56;;;;;;;;;26.50;24.50;;;;;;;;5071300;28;45452;-70
2022/03/23 12:33:22;;;;;;;;;27.00;26.75;;;;;;;;5073635;28;45550;-70
2022/03/23 12:35:48;;;;;;;;;25.25;25.25;;;;;;;;5070801;28;46494;-72
2022/03/23 12:38:22;;;;;;;;;20.50;20.50;;;;;;;;5074131;27;45540;-73
2022/03/23 12:40:48;;;;;;;;;24.50;22.75;;;;;;;;5073042;27;45835;-71
2022/03/23 12:43:33;;;;;;;;;25.50;24.25;;;;;;;;5072367;28;45572;-71
2022/03/23 12:45:58;;;;;;;;;21.75;20.00;;;;;;;;5074377;28;45526;-71
2022/03/23 12:59:35;;;;;;;;;24.25;24.00;;;;;;;;5073542;28;45431;-72
2022/03/23 13:02:19;;;;;;;;;24.50;21.25;;;;;;;;5073901;28;46363;-72
2022/03/23 13:04:45;;;;;;;;;19.25;19.25;;;;;;;;5059466;28;48004;-72
2022/03/23 13:07:28;;;;;;;;;21.50;21.50;;;;;;;;5072227;28;48464;-71
2022/03/23 13:09:57;;;;;;;;;21.75;20.25;;;;;;;;5072705;28;46293;-72
2022/03/23 13:12:28;;;;;;;;;23.75;23.50;;;;;;;;5073531;27;45348;-71
2022/03/23 13:14:53;;;;;;;;;21.00;20.25;;;;;;;;5073386;28;45475;-73
2022/03/23 13:17:19;;;;;;;;;26.00;23.50;;;;;;;;5074110;28;46587;-73
2022/03/23 13:19:44;;;;;;;;;21.25;19.25;;;;;;;;5073372;28;45498;-72
2022/03/23 13:22:09;;;;;;;;;26.25;20.50;;;;;;;;5073908;27;45699;-71
2022/03/23 13:24:34;;;;;;;;;21.75;20.75;;;;;;;;5073895;28;45619;-71
2022/03/23 13:27:09;;;;;;;;;26.00;24.00;;;;;;;;5073202;28;46142;-72
2022/03/23 13:29:35;;;;;;;;;25.25;25.25;;;;;;;;5071958;28;45442;-72
2022/03/23 13:32:03;;;;;;;;;28.25;24.75;;;;;;;;5073764;28;45360;-72
2022/03/23 13:34:34;;;;;;;;;25.50;24.25;;;;;;;;5073642;27;45400;-70
2022/03/23 13:37:00;;;;;;;;;22.75;20.75;;;;;;;;5073765;27;45792;-71
2022/03/23 13:39:25;;;;;;;;;27.00;25.75;;;;;;;;5071829;28;45512;-71
2022/03/23 13:47:34;;;;;;;;;15.50;14.50;;;;;;;;5076684;28;45581;-71
2022/03/23 13:50:02;;;;;;;;;21.50;21.50;;;;;;;;5076741;27;45462;-72
2022/03/23 13:52:28;;;;;;;;;22.25;22.25;;;;;;;;5075449;28;45463;-72
2022/03/23 13:54:55;;;;;;;;;24.50;24.25;;;;;;;;5077481;27;45403;-72
2022/03/23 13:57:20;;;;;;;;;26.50;23.00;;;;;;;;5076493;27;46628;-71
2022/03/23 13:59:49;;;;;;;;;20.75;20.25;;;;;;;;5076106;28;45510;-71
2022/03/23 14:02:16;;;;;;;;;23.00;21.75;;;;;;;;5076569;27;45451;-72
2022/03/23 14:04:42;;;;;;;;;22.50;21.50;;;;;;;;5076717;27;45466;-72
2022/03/23 14:07:08;;;;;;;;;16.75;15.00;;;;;;;;5076532;27;46482;-71
2022/03/23 14:09:37;;;;;;;;;20.75;18.50;;;;;;;;5074804;28;45765;-71
2022/03/23 14:12:05;;;;;;;;;24.75;22.75;;;;;;;;5076594;27;45334;-73
2022/03/23 14:14:41;;;;;;;;;23.50;22.25;;;;;;;;5075068;28;45459;-73
2022/03/23 14:17:13;;;;;;;;;21.25;20.00;;;;;;;;5074874;28;47926;-73
2022/03/23 14:19:41;;;;;;;;;27.75;23.75;;;;;;;;5074964;28;45716;-71
2022/03/23 14:22:07;;;;;;;;;27.25;26.25;;;;;;;;5077019;27;45400;-71
2022/03/23 14:24:34;;;;;;;;;28.00;24.75;;;;;;;;5076120;28;45467;-72
2022/03/23 14:27:16;;;;;;;;;26.75;23.75;;;;;;;;5068565;28;47607;-71
2022/03/23 14:29:42;;;;;;;;;21.75;21.75;;;;;;;;5075939;27;45560;-72
2022/03/23 14:32:11;;;;;;;;;22.00;19.75;;;;;;;;5076301;28;45432;-71
2022/03/23 14:34:38;;;;;;;;;28.75;25.75;;;;;;;;5076288;27;45403;-72
2022/03/23 14:37:07;;;;;;;;;27.25;22.50;;;;;;;;5076735;27;45970;-73
2022/03/23 14:39:40;;;;;;;;;25.50;23.25;;;;;;;;5077513;28;45572;-72
2022/03/23 14:42:07;;;;;;;;;24.00;21.25;;;;;;;;5068628;28;45586;-71
2022/03/23 14:44:36;;;;;;;;;24.75;24.75;;;;;;;;5075829;27;45479;-72
2022/03/23 14:47:02;;;;;;;;;25.00;24.00;;;;;;;;5069250;28;47956;-72
2022/03/23 14:49:36;;;;;;;;;26.25;26.25;;;;;;;;5074160;28;45389;-73
2022/03/23 14:52:01;;;;;;;;;25.50;24.25;;;;;;;;5066968;28;45353;-72
2022/03/23 14:54:26;;;;;;;;;25.50;25.25;;;;;;;;5075367;28;45364;-72
2022/03/23 14:56:53;;;;;;;;;26.75;26.00;;;;;;;;5075402;28;46006;-72
2022/03/23 14:59:19;;;;;;;;;33.25;24.75;;;;;;;;5074202;28;45352;-71
2022/03/23 15:01:46;;;;;;;;;27.75;24.75;;;;;;;;5074438;28;45384;-73
2022/03/23 15:04:12;;;;;;;;;27.50;24.50;;;;;;;;5075878;27;45459;-71
2022/03/23 15:14:49;;;;;;;;;26.00;25.00;;;;;;;;5075432;28;45923;-71
2022/03/23 15:17:16;;;;;;;;;26.50;25.25;;;;;;;;5074662;28;45462;-71
2022/03/23 15:19:41;;;;;;;;;31.75;28.50;;;;;;;;5075216;27;45452;-71
2022/03/23 15:22:09;;;;;;;;;28.00;25.25;;;;;;;;5074316;28;45529;-71
2022/03/23 15:24:35;;;;;;;;;27.75;24.00;;;;;;;;5084393;27;45408;-71
2022/03/23 15:27:00;;;;;;;;;27.00;24.25;;;;;;;;5073328;28;49008;-73
2022/03/23 15:29:26;;;;;;;;;29.50;26.25;;;;;;;;5073836;28;45587;-71
2022/03/23 15:31:51;;;;;;;;;29.50;24.00;;;;;;;;5073382;27;45529;-71
2022/03/23 15:34:16;;;;;;;;;25.50;23.50;;;;;;;;5075769;28;45342;-71
2022/03/23 15:36:41;;;;;;;;;23.50;23.50;;;;;;;;5075452;28;45432;-71
2022/03/23 15:39:08;;;;;;;;;19.50;18.75;;;;;;;;5074826;27;45553;-70
2022/03/23 15:41:34;;;;;;;;;30.25;21.50;;;;;;;;5071182;27;45293;-71
2022/03/23 15:44:05;;;;;;;;;24.25;22.75;;;;;;;;5070454;27;45407;-74